createdAt,value
2023-04-05T00:02:30.325Z,7.22
2023-04-05T00:04:57.456Z,7.88
2023-04-05T00:07:24.609Z,7.38
2023-04-05T00:09:51.237Z,7.30
2023-04-05T00:12:17.841Z,6.28
2023-04-05T00:14:44.456Z,6.82
2023-04-05T00:17:12.711Z,5.45
2023-04-05T00:19:39.472Z,5.43
2023-04-05T00:22:06.024Z,6.13
2023-04-05T00:24:34.058Z,6.45
2023-04-05T00:27:01.434Z,5.45
2023-04-05T00:29:28.359Z,5.15
2023-04-05T00:31:56.499Z,5.70
2023-04-05T00:34:23.463Z,5.93
2023-04-05T00:36:50.536Z,6.00
2023-04-05T00:39:17.281Z,5.90
2023-04-05T00:41:45.825Z,5.38
2023-04-05T00:44:14.198Z,4.72
2023-04-05T00:46:42.165Z,5.40
2023-04-05T00:49:09.059Z,4.03
2023-04-05T00:51:36.657Z,4.90
2023-04-05T00:54:03.635Z,4.35
2023-04-05T00:56:31.411Z,4.53
2023-04-05T00:58:58.676Z,3.97
2023-04-05T01:01:28.037Z,3.20
2023-04-05T01:04:03.228Z,3.05
2023-04-05T01:07:01.348Z,3.70
2023-04-05T01:09:40.978Z,2.80
2023-04-05T01:12:10.204Z,2.65
2023-04-05T01:14:46.984Z,3.00
2023-04-05T01:17:13.816Z,1.33
2023-04-05T01:19:42.179Z,2.13
2023-04-05T01:22:14.878Z,2.58
2023-04-05T01:24:58.386Z,2.65
2023-04-05T01:27:54.379Z,2.17
2023-04-05T01:30:26.861Z,2.45
2023-04-05T01:33:05.700Z,2.13
2023-04-05T01:35:59.474Z,2.20
2023-04-05T01:38:28.323Z,2.20
2023-04-05T01:40:54.921Z,2.20
2023-04-05T01:43:21.625Z,1.88
2023-04-05T01:45:48.419Z,1.88
2023-04-05T01:48:16.030Z,1.08
2023-04-05T01:50:43.378Z,2.33
2023-04-05T01:53:10.652Z,1.17
2023-04-05T01:55:37.407Z,1.55
2023-04-05T01:58:04.009Z,1.95
2023-04-05T02:00:30.976Z,1.65
2023-04-05T02:02:57.748Z,1.75
2023-04-05T02:05:24.290Z,2.15
2023-04-05T02:07:51.393Z,1.45
2023-04-05T02:10:19.327Z,1.70
2023-04-05T02:12:46.211Z,1.83
2023-04-05T02:15:12.744Z,2.35
2023-04-05T02:17:39.984Z,1.77
2023-04-05T02:20:12.437Z,2.20
2023-04-05T02:22:40.129Z,2.08
2023-04-05T02:25:10.696Z,1.95
2023-04-05T02:27:37.383Z,2.40
2023-04-05T02:30:04.440Z,2.40
2023-04-05T02:32:32.048Z,1.77
2023-04-05T02:34:58.805Z,1.85
2023-04-05T02:37:26.552Z,2.65
2023-04-05T02:39:53.876Z,2.72
2023-04-05T02:42:20.484Z,3.53
2023-04-05T02:44:47.228Z,2.33
2023-04-05T02:47:17.413Z,2.58
2023-04-05T02:49:43.983Z,2.83
2023-04-05T02:52:10.686Z,2.40
2023-04-05T02:54:37.230Z,2.65
2023-04-05T02:57:03.893Z,2.85
2023-04-05T02:59:30.569Z,2.55
2023-04-05T03:01:57.180Z,2.20
2023-04-05T03:04:26.891Z,2.55
2023-04-05T03:06:54.970Z,2.05
2023-04-05T03:09:22.454Z,3.70
2023-04-05T03:11:49.416Z,3.13
2023-04-05T03:14:16.357Z,2.95
2023-04-05T03:16:43.013Z,2.53
2023-04-05T03:19:09.994Z,2.97
2023-04-05T03:21:36.733Z,3.55
2023-04-05T03:24:03.956Z,3.67
2023-04-05T03:26:30.711Z,3.42
2023-04-05T03:28:57.272Z,3.22
2023-04-05T03:31:23.973Z,2.47
2023-04-05T03:33:50.736Z,2.95
2023-04-05T03:36:42.690Z,2.70
2023-04-05T03:39:10.715Z,2.47
2023-04-05T03:41:38.035Z,2.45
2023-04-05T03:44:04.795Z,2.22
2023-04-05T03:46:31.765Z,2.35
2023-04-05T03:48:59.714Z,2.72
2023-04-05T03:51:27.245Z,2.92
2023-04-05T03:53:53.925Z,3.55
2023-04-05T03:56:21.007Z,3.85
2023-04-05T03:58:47.758Z,3.15
2023-04-05T04:01:15.780Z,2.75
2023-04-05T04:03:42.541Z,2.95
2023-04-05T04:06:09.253Z,3.13
2023-04-05T04:08:36.028Z,3.00
2023-04-05T04:11:03.898Z,3.05
2023-04-05T04:13:30.508Z,3.45
2023-04-05T04:15:57.329Z,3.25
2023-04-05T04:18:23.899Z,3.85
2023-04-05T04:20:52.373Z,4.75
2023-04-05T04:23:19.461Z,4.00
2023-04-05T04:25:46.708Z,3.55
2023-04-05T04:28:13.726Z,3.55
2023-04-05T04:30:43.444Z,3.70
2023-04-05T04:33:10.215Z,4.05
2023-04-05T04:35:39.290Z,2.63
2023-04-05T04:38:07.402Z,2.55
2023-04-05T04:40:40.076Z,3.60
2023-04-05T04:43:14.529Z,2.40
2023-04-05T04:45:41.784Z,4.10
2023-04-05T04:48:08.777Z,2.97
2023-04-05T04:50:35.991Z,2.92
2023-04-05T04:53:02.734Z,3.58
2023-04-05T04:55:29.572Z,5.22
2023-04-05T04:57:57.341Z,2.75
2023-04-05T05:00:24.410Z,2.45
2023-04-05T05:02:53.092Z,2.75
2023-04-05T05:05:23.306Z,1.10
2023-04-05T05:07:50.890Z,1.05
2023-04-05T05:10:18.908Z,1.00
2023-04-05T05:12:45.950Z,0.90
2023-04-05T05:15:12.892Z,0.80
2023-04-05T05:17:39.791Z,0.77
2023-04-05T05:20:11.376Z,0.63
2023-04-05T05:22:38.991Z,0.88
2023-04-05T05:25:07.049Z,0.70
2023-04-05T05:27:36.451Z,0.50
2023-04-05T05:30:03.784Z,0.95
2023-04-05T05:32:30.407Z,0.60
2023-04-05T05:34:56.994Z,0.50
2023-04-05T05:37:31.295Z,0.70
2023-04-05T05:39:57.951Z,0.70
2023-04-05T05:42:24.848Z,0.98
2023-04-05T05:44:51.528Z,0.80
2023-04-05T05:47:18.130Z,1.30
2023-04-05T05:49:44.721Z,2.95
2023-04-05T05:52:11.283Z,1.23
2023-04-05T05:54:37.838Z,0.80
2023-04-05T05:57:04.627Z,1.60
2023-04-05T05:59:31.366Z,0.50
2023-04-05T06:01:58.316Z,0.80
2023-04-05T06:04:25.124Z,0.80
2023-04-05T06:06:52.942Z,1.10
2023-04-05T06:09:19.488Z,0.70
2023-04-05T06:11:55.687Z,0.60
2023-04-05T06:14:24.251Z,0.80
2023-04-05T06:16:50.858Z,0.70
2023-04-05T06:19:17.405Z,1.58
2023-04-05T06:21:44.082Z,0.98
2023-04-05T06:24:10.969Z,0.65
2023-04-05T06:26:37.507Z,0.60
2023-04-05T06:29:04.494Z,0.75
2023-04-05T06:31:32.415Z,0.60
2023-04-05T06:33:59.088Z,1.08
2023-04-05T06:36:27.754Z,0.60
2023-04-05T06:38:54.776Z,0.50
2023-04-05T06:41:21.365Z,0.60
2023-04-05T06:43:47.998Z,1.08
2023-04-05T06:46:14.904Z,0.50
2023-04-05T06:48:42.347Z,0.90
2023-04-05T06:51:09.024Z,0.95
2023-04-05T06:53:35.840Z,0.50
2023-04-05T06:56:03.007Z,0.40
2023-04-05T06:58:30.016Z,0.40
2023-04-05T07:00:56.805Z,0.40
2023-04-05T07:03:23.400Z,0.30
2023-04-05T07:05:53.951Z,0.30
2023-04-05T07:08:21.378Z,0.40
2023-04-05T07:10:49.336Z,0.40
2023-04-05T07:13:17.217Z,0.30
2023-04-05T07:15:44.659Z,0.40
2023-04-05T07:18:12.127Z,0.60
2023-04-05T07:20:39.303Z,0.30
2023-04-05T07:23:06.425Z,0.50
2023-04-05T07:25:33.661Z,0.57
2023-04-05T07:28:00.559Z,0.50
2023-04-05T07:30:27.752Z,0.30
2023-04-05T07:32:55.363Z,0.40
2023-04-05T07:35:22.204Z,0.30
2023-04-05T07:37:48.805Z,0.40
2023-04-05T07:40:15.810Z,0.30
2023-04-05T07:42:42.505Z,0.60
2023-04-05T07:45:09.415Z,0.43
2023-04-05T07:47:36.211Z,0.50
2023-04-05T07:50:03.609Z,0.40
2023-04-05T07:52:30.496Z,0.32
2023-04-05T07:54:57.107Z,0.88
2023-04-05T07:57:23.792Z,0.20
2023-04-05T07:59:54.820Z,0.70
2023-04-05T08:02:21.544Z,7.55
2023-04-05T08:04:48.219Z,0.40
2023-04-05T08:07:14.928Z,0.43
2023-04-05T08:09:41.515Z,12.32
2023-04-05T08:12:08.368Z,0.55
2023-04-05T08:14:35.589Z,0.50
2023-04-05T08:17:02.348Z,0.70
2023-04-05T08:19:28.933Z,0.60
2023-04-05T08:21:55.591Z,0.30
2023-04-05T08:24:22.555Z,0.50
2023-04-05T08:26:49.323Z,0.30
2023-04-05T08:29:15.874Z,0.40
2023-04-05T08:31:42.509Z,0.68
2023-04-05T08:34:09.166Z,0.70
2023-04-05T08:36:35.909Z,7.40
2023-04-05T08:39:02.598Z,0.70
2023-04-05T08:41:36.580Z,0.40
2023-04-05T08:44:05.681Z,0.30
2023-04-05T08:46:34.107Z,0.50
2023-04-05T08:49:11.699Z,0.77
2023-04-05T08:51:41.928Z,0.50
2023-04-05T08:54:08.578Z,0.50
2023-04-05T08:56:36.558Z,0.40
2023-04-05T08:59:08.372Z,0.60
2023-04-05T09:01:43.274Z,0.50
2023-04-05T09:04:15.606Z,0.60
2023-04-05T09:06:44.187Z,0.60
2023-04-05T09:09:11.973Z,0.50
2023-04-05T09:11:39.943Z,0.60
2023-04-05T09:14:07.479Z,0.82
2023-04-05T09:16:38.079Z,0.60
2023-04-05T09:19:05.810Z,0.40
2023-04-05T09:21:58.100Z,0.60
2023-04-05T09:24:43.846Z,2.83
2023-04-05T09:27:11.759Z,0.40
2023-04-05T09:29:40.302Z,0.30
2023-04-05T09:32:08.627Z,0.32
2023-04-05T09:34:39.046Z,0.50
2023-04-05T09:37:17.103Z,0.40
2023-04-05T09:39:45.441Z,0.20
2023-04-05T09:42:16.816Z,0.40
2023-04-05T09:44:57.750Z,0.30
2023-04-05T09:47:27.683Z,4.57
2023-04-05T09:49:54.598Z,0.40
2023-04-05T09:52:26.356Z,0.30
2023-04-05T09:54:58.092Z,0.40
2023-04-05T09:57:29.427Z,0.38
2023-04-05T09:59:56.253Z,0.40
2023-04-05T10:02:23.221Z,0.50
2023-04-05T10:04:49.891Z,0.50
2023-04-05T10:07:18.586Z,0.50
2023-04-05T10:09:48.108Z,0.60
2023-04-05T10:12:28.543Z,0.40
2023-04-05T10:14:57.147Z,0.60
2023-04-05T10:17:27.947Z,0.80
2023-04-05T10:20:18.277Z,1.00
2023-04-05T10:23:11.790Z,0.80
2023-04-05T10:26:00.956Z,0.80
2023-04-05T10:28:37.563Z,1.00
2023-04-05T10:31:41.140Z,0.60
2023-04-05T10:34:12.436Z,1.70
2023-04-05T10:36:56.993Z,0.88
2023-04-05T10:39:30.596Z,0.85
2023-04-05T10:42:35.122Z,1.02
2023-04-05T10:45:05.872Z,2.30
2023-04-05T10:47:42.616Z,0.93
2023-04-05T10:50:15.834Z,0.70
2023-04-05T10:52:43.423Z,0.70
2023-04-05T10:55:10.558Z,1.73
2023-04-05T10:57:38.383Z,0.60
2023-04-05T11:00:05.826Z,1.60
2023-04-05T11:02:33.000Z,1.10
2023-04-05T11:05:04.944Z,1.20
2023-04-05T11:08:00.126Z,0.80
2023-04-05T11:10:28.236Z,0.75
2023-04-05T11:12:57.600Z,0.60
2023-04-05T11:15:33.556Z,0.65
2023-04-05T11:18:20.704Z,0.80
2023-04-05T11:20:57.712Z,1.10
2023-04-05T11:23:25.703Z,1.55
2023-04-05T11:26:11.680Z,0.57
2023-04-05T11:28:41.069Z,0.70
2023-04-05T11:31:19.355Z,1.38
2023-04-05T11:33:55.425Z,1.33
2023-04-05T11:36:31.558Z,2.08
2023-04-05T11:39:19.888Z,1.58
2023-04-05T11:41:55.685Z,0.73
2023-04-05T11:44:26.319Z,0.98
2023-04-05T11:46:54.225Z,1.63
2023-04-05T11:49:25.110Z,2.30
2023-04-05T11:51:53.666Z,1.10
2023-04-05T11:54:30.689Z,1.23
2023-04-05T11:56:57.285Z,2.70
2023-04-05T11:59:34.745Z,0.90
2023-04-05T12:02:08.286Z,1.00
2023-04-05T12:04:38.732Z,1.20
2023-04-05T12:07:14.610Z,1.42
2023-04-05T12:09:59.903Z,1.23
2023-04-05T12:12:26.544Z,0.75
2023-04-05T12:14:59.588Z,0.73
2023-04-05T12:17:44.080Z,1.25
2023-04-05T12:20:13.453Z,1.20
2023-04-05T12:22:42.229Z,1.73
2023-04-05T12:25:09.587Z,1.40
2023-04-05T12:27:36.493Z,1.08
2023-04-05T12:30:17.772Z,1.30
2023-04-05T12:32:46.665Z,2.00
2023-04-05T12:35:32.447Z,1.85
2023-04-05T12:38:00.962Z,1.25
2023-04-05T12:40:27.906Z,1.52
2023-04-05T12:43:10.389Z,2.20
2023-04-05T12:45:40.899Z,1.50
2023-04-05T12:48:11.188Z,2.42
2023-04-05T12:50:55.121Z,2.22
2023-04-05T12:53:25.525Z,2.45
2023-04-05T12:55:54.818Z,2.33
2023-04-05T12:58:23.520Z,1.02
2023-04-05T13:00:50.350Z,1.40
2023-04-05T13:03:21.472Z,3.13
2023-04-05T13:05:49.404Z,6.43
2023-04-05T13:08:18.502Z,3.03
2023-04-05T13:10:46.618Z,3.40
2023-04-05T13:13:17.326Z,3.13
2023-04-05T13:15:46.170Z,3.13
2023-04-05T13:18:16.298Z,1.65
2023-04-05T13:20:43.301Z,2.08
2023-04-05T13:23:13.465Z,1.17
2023-04-05T13:25:42.048Z,2.25
2023-04-05T13:28:10.519Z,1.02
2023-04-05T13:30:37.654Z,1.42
2023-04-05T13:33:04.785Z,2.53
2023-04-05T13:35:31.521Z,2.55
2023-04-05T13:37:58.234Z,2.65
2023-04-05T13:40:24.988Z,0.80
2023-04-05T13:42:51.546Z,6.15
2023-04-05T13:45:18.286Z,14.15
2023-04-05T13:47:44.911Z,29.02
2023-04-05T13:50:11.588Z,2.38
2023-04-05T13:52:38.143Z,1.80
2023-04-05T13:55:05.012Z,2.97
2023-04-05T13:57:32.220Z,3.30
2023-04-05T13:59:58.874Z,2.00
2023-04-05T14:02:27.303Z,2.60
2023-04-05T14:04:54.571Z,2.25
2023-04-05T14:07:22.936Z,3.08
2023-04-05T14:09:49.516Z,1.33
2023-04-05T14:12:16.396Z,1.23
2023-04-05T14:14:42.986Z,1.65
2023-04-05T14:17:11.643Z,4.20
2023-04-05T14:19:39.330Z,2.90
2023-04-05T14:22:06.172Z,3.40
2023-04-05T14:24:32.924Z,2.88
2023-04-05T14:26:59.611Z,3.17
2023-04-05T14:29:26.973Z,2.63
2023-04-05T14:31:55.772Z,2.95
2023-04-05T14:34:22.461Z,4.35
2023-04-05T14:36:49.810Z,3.33
2023-04-05T14:39:16.807Z,4.32
2023-04-05T14:41:44.102Z,3.58
2023-04-05T14:44:10.661Z,2.25
2023-04-05T14:46:37.371Z,1.55
2023-04-05T14:49:04.183Z,5.25
2023-04-05T14:51:31.421Z,4.57
2023-04-05T14:53:58.161Z,2.28
2023-04-05T14:56:26.360Z,3.33
2023-04-05T14:58:53.125Z,4.00
2023-04-05T15:01:19.782Z,3.55
2023-04-05T15:03:48.330Z,5.03
2023-04-05T15:06:16.327Z,5.18
2023-04-05T15:08:42.923Z,4.25
2023-04-05T15:11:09.603Z,3.30
2023-04-05T15:13:36.229Z,6.10
2023-04-05T15:16:02.774Z,4.95
2023-04-05T15:18:29.454Z,5.30
2023-04-05T15:20:56.156Z,6.32
2023-04-05T15:23:22.884Z,5.10
2023-04-05T15:25:49.444Z,6.22
2023-04-05T15:28:16.070Z,5.53
2023-04-05T15:30:44.821Z,6.25
2023-04-05T15:33:11.504Z,7.25
2023-04-05T15:35:38.251Z,5.38
2023-04-05T15:38:04.951Z,5.78
2023-04-05T15:40:31.655Z,5.20
2023-04-05T15:42:58.949Z,5.22
2023-04-05T15:45:25.604Z,2.70
2023-04-05T15:47:52.352Z,5.55
2023-04-05T15:50:20.542Z,3.25
2023-04-05T15:52:47.128Z,7.28
2023-04-05T15:55:13.823Z,4.85
2023-04-05T15:57:40.537Z,6.65
2023-04-05T16:00:08.809Z,5.28
2023-04-05T16:02:37.497Z,5.35
2023-04-05T16:05:04.380Z,6.35
2023-04-05T16:07:31.415Z,5.70
2023-04-05T16:09:58.262Z,6.20
2023-04-05T16:12:25.014Z,7.97
2023-04-05T16:14:51.568Z,7.55
2023-04-05T16:17:18.207Z,7.93
2023-04-05T16:19:44.922Z,8.32
2023-04-05T16:22:11.672Z,8.05
2023-04-05T16:24:39.298Z,8.93
2023-04-05T16:27:06.311Z,8.55
2023-04-05T16:29:33.508Z,8.63
2023-04-05T16:32:00.405Z,4.22
2023-04-05T16:34:27.073Z,6.72
2023-04-05T16:36:53.809Z,6.90
2023-04-05T16:39:20.449Z,7.45
2023-04-05T16:41:47.130Z,8.82
2023-04-05T16:44:13.782Z,7.05
2023-04-05T16:46:40.390Z,6.10
2023-04-05T16:49:07.021Z,6.32
2023-04-05T16:51:34.622Z,8.10
2023-04-05T16:54:01.485Z,8.05
2023-04-05T16:56:28.423Z,9.45
2023-04-05T16:58:55.310Z,9.93
2023-04-05T17:01:21.952Z,8.73
2023-04-05T17:03:48.813Z,9.20
2023-04-05T17:06:15.886Z,9.27
2023-04-05T17:08:42.549Z,8.27
2023-04-05T17:11:10.311Z,9.10
2023-04-05T17:13:37.027Z,9.35
2023-04-05T17:18:48.038Z,9.85
2023-04-05T17:21:14.715Z,8.40
2023-04-05T17:23:41.328Z,9.00
2023-04-05T17:26:08.053Z,9.30
2023-04-05T17:28:34.950Z,9.50
2023-04-05T17:31:02.975Z,12.15
2023-04-05T17:33:29.825Z,13.82
2023-04-05T17:35:58.287Z,11.48
2023-04-05T17:38:25.196Z,13.35
2023-04-05T17:40:52.316Z,12.43
2023-04-05T17:43:19.149Z,12.10
2023-04-05T17:45:45.813Z,13.30
2023-04-05T17:48:12.528Z,11.18
2023-04-05T17:50:39.283Z,11.77
2023-04-05T17:53:06.099Z,11.85
2023-04-05T17:55:33.857Z,11.55
2023-04-05T17:58:00.504Z,11.70
2023-04-05T18:00:27.173Z,11.20
2023-04-05T18:02:53.969Z,9.70
2023-04-05T18:05:20.830Z,9.02
2023-04-05T18:07:47.501Z,8.88
2023-04-05T18:10:14.176Z,8.75
2023-04-05T18:12:41.635Z,7.65
2023-04-05T18:15:08.900Z,8.07
2023-04-05T18:17:35.550Z,9.23
2023-04-05T18:20:02.425Z,6.20
2023-04-05T18:22:31.768Z,7.78
2023-04-05T18:24:58.509Z,8.93
2023-04-05T18:27:25.188Z,9.15
2023-04-05T18:29:51.841Z,9.15
2023-04-05T18:32:21.156Z,9.32
2023-04-05T18:34:48.339Z,8.15
2023-04-05T18:37:14.937Z,8.77
2023-04-05T18:39:41.970Z,9.13
2023-04-05T18:42:08.802Z,9.77
2023-04-05T18:44:35.408Z,9.27
2023-04-05T18:47:02.243Z,9.07
2023-04-05T18:49:29.176Z,9.60
2023-04-05T18:51:56.027Z,9.90
2023-04-05T18:54:22.888Z,9.15
2023-04-05T18:56:49.626Z,9.50
2023-04-05T18:59:17.417Z,8.55
2023-04-05T19:01:44.274Z,7.50
2023-04-05T19:04:11.335Z,8.02
2023-04-05T19:06:37.992Z,7.28
2023-04-05T19:09:04.806Z,8.50
2023-04-05T19:11:31.597Z,8.93
2023-04-05T19:14:00.441Z,8.68
2023-04-05T19:16:27.418Z,9.52
2023-04-05T19:18:54.127Z,9.55
2023-04-05T19:21:20.887Z,9.52
2023-04-05T19:23:47.491Z,9.52
2023-04-05T19:26:14.162Z,8.73
2023-04-05T19:28:40.877Z,8.00
2023-04-05T19:31:08.190Z,8.02
2023-04-05T19:33:34.927Z,8.10
2023-04-05T19:36:01.756Z,7.68
2023-04-05T19:38:28.801Z,7.20
2023-04-05T19:40:55.452Z,8.48
2023-04-05T19:43:24.544Z,8.20
2023-04-05T19:45:57.152Z,8.25
2023-04-05T19:48:48.291Z,7.85
2023-04-05T19:51:17.983Z,9.32
2023-04-05T19:53:49.232Z,10.55
2023-04-05T19:56:28.434Z,8.60
2023-04-05T19:59:13.986Z,9.10
2023-04-05T20:01:41.617Z,9.70
2023-04-05T20:04:08.243Z,9.85
2023-04-05T20:06:34.983Z,9.52
2023-04-05T20:09:05.772Z,7.90
2023-04-05T20:11:33.038Z,8.27
2023-04-05T20:14:02.099Z,9.27
2023-04-05T20:16:31.241Z,9.85
2023-04-05T20:19:02.733Z,10.57
2023-04-05T20:21:29.332Z,9.70
2023-04-05T20:23:57.958Z,10.50
2023-04-05T20:26:32.104Z,10.23
2023-04-05T20:29:01.392Z,9.45
2023-04-05T20:31:32.934Z,9.50
2023-04-05T20:34:19.980Z,9.82
2023-04-05T20:36:52.326Z,8.80
2023-04-05T20:39:19.276Z,9.88
2023-04-05T20:41:46.705Z,8.70
2023-04-05T20:44:13.470Z,8.27
2023-04-05T20:46:40.886Z,8.23
2023-04-05T20:49:07.953Z,8.55
2023-04-05T20:51:34.800Z,8.43
2023-04-05T20:54:01.516Z,8.48
2023-04-05T20:56:28.776Z,7.75
2023-04-05T20:58:56.088Z,8.02
2023-04-05T21:01:23.288Z,7.55
2023-04-05T21:03:50.088Z,7.80
2023-04-05T21:06:16.733Z,8.38
2023-04-05T21:08:43.473Z,7.93
2023-04-05T21:11:12.078Z,8.38
2023-04-05T21:13:58.043Z,9.52
2023-04-05T21:16:24.794Z,9.65
2023-04-05T21:18:51.581Z,9.60
2023-04-05T21:21:18.198Z,10.18
2023-04-05T21:23:44.810Z,9.38
2023-04-05T21:26:11.390Z,8.85
2023-04-05T21:28:38.192Z,8.35
2023-04-05T21:31:04.846Z,7.38
2023-04-05T21:33:32.013Z,7.30
2023-04-05T21:35:58.875Z,7.40
2023-04-05T21:38:25.824Z,6.75
2023-04-05T21:40:52.549Z,6.53
2023-04-05T21:43:19.102Z,7.32
2023-04-05T21:45:46.659Z,7.20
2023-04-05T21:48:13.339Z,6.80
2023-04-05T21:50:40.134Z,6.45
2023-04-05T21:53:07.501Z,5.15
2023-04-05T21:55:34.103Z,5.03
2023-04-05T21:58:01.053Z,5.03
2023-04-05T22:00:28.307Z,6.15
2023-04-05T22:02:55.059Z,4.97
2023-04-05T22:05:34.064Z,4.57
2023-04-05T22:08:05.660Z,5.32
2023-04-05T22:10:33.098Z,4.25
2023-04-05T22:12:59.639Z,4.10
2023-04-05T22:15:26.220Z,4.43
2023-04-05T22:17:53.167Z,4.78
2023-04-05T22:20:19.840Z,4.40
2023-04-05T22:22:46.590Z,4.93
2023-04-05T22:25:13.613Z,4.70
2023-04-05T22:27:40.571Z,5.35
2023-04-05T22:30:08.235Z,5.65
2023-04-05T22:32:35.125Z,5.65
2023-04-05T22:35:01.706Z,5.32
2023-04-05T22:37:35.202Z,5.47
2023-04-05T22:40:02.861Z,5.43
2023-04-05T22:42:29.472Z,5.78
2023-04-05T22:44:56.139Z,5.45
2023-04-05T22:47:22.894Z,5.43
2023-04-05T22:49:50.055Z,5.63
2023-04-05T22:52:16.748Z,5.80
2023-04-05T22:54:43.390Z,5.53
2023-04-05T22:57:11.542Z,5.20
2023-04-05T22:59:38.690Z,4.80
2023-04-05T23:02:05.490Z,5.28
2023-04-05T23:04:32.365Z,5.53
2023-04-05T23:06:58.996Z,5.50
2023-04-05T23:09:25.864Z,6.03
2023-04-05T23:11:52.565Z,7.18
2023-04-05T23:14:19.248Z,7.70
2023-04-05T23:16:45.981Z,6.82
2023-04-05T23:19:12.752Z,7.43
2023-04-05T23:21:39.515Z,6.97
2023-04-05T23:24:06.633Z,6.85
2023-04-05T23:26:34.480Z,7.07
2023-04-05T23:29:01.212Z,6.60
2023-04-05T23:31:27.939Z,6.75
2023-04-05T23:33:54.958Z,5.88
2023-04-05T23:36:24.548Z,4.82
2023-04-05T23:38:51.146Z,5.00
2023-04-05T23:41:17.752Z,5.28
2023-04-05T23:43:44.424Z,4.63
2023-04-05T23:46:11.203Z,5.50
2023-04-05T23:48:37.969Z,5.20
2023-04-05T23:51:04.813Z,5.20
2023-04-05T23:53:31.399Z,4.90
2023-04-05T23:55:57.985Z,5.38
2023-04-05T23:58:24.601Z,4.90
